Terminal Aerodrome Forecast
Issued by NWS

Home | Current Version | Previous Version | Text Only | Print | Product List | Glossary Off
Versions: 1 2 3 4 5 6 7 8 9 10 11 12 13 14 15 16 17 18 19 20 21 22

000
FTUS43 KICT 280520
TAFCNU
TAF
KCNU 280520Z 2806/2906 12005KT P6SM SCT035
     FM281100 14005KT P6SM VCTS BKN035CB
     FM281500 18012KT P6SM BKN120
     FM281800 18015G22KT P6SM VCTS SCT035CB BKN120
     FM290300 16010KT P6SM SCT030 BKN100=

USA.gov is the U.S. government's official web portal to all federal, state and local government web resources and services.